sensor_id;sensor_type;location;lat;lon;timestamp;pressure;altitude;pressure_sealevel;temperature;humidity
69737;BME280;64476;55.004;73.342;2022-11-11T00:00:57;101160.91;;;4.30;66.44
69737;BME280;64476;55.004;73.342;2022-11-11T00:03:47;101225.16;;;4.71;65.92
69737;BME280;64476;55.004;73.342;2022-11-11T00:06:32;101222.50;;;4.73;66.32
69737;BME280;64476;55.004;73.342;2022-11-11T00:09:17;101195.75;;;4.56;65.81
69737;BME280;64476;55.004;73.342;2022-11-11T00:12:02;101189.16;;;4.51;65.88
69737;BME280;64476;55.004;73.342;2022-11-11T00:14:55;101222.66;;;4.70;65.66
69737;BME280;64476;55.004;73.342;2022-11-11T00:17:40;101188.50;;;4.47;65.61
69737;BME280;64476;55.004;73.342;2022-11-11T00:20:44;101175.97;;;4.40;65.60
69737;BME280;64476;55.004;73.342;2022-11-11T00:23:52;101209.22;;;4.63;65.88
69737;BME280;64476;55.004;73.342;2022-11-11T00:26:56;101222.16;;;4.63;66.27
69737;BME280;64476;55.004;73.342;2022-11-11T00:29:45;101198.25;;;4.42;66.12
69737;BME280;64476;55.004;73.342;2022-11-11T00:32:31;101196.81;;;4.36;66.62
69737;BME280;64476;55.004;73.342;2022-11-11T00:35:20;101213.38;;;4.50;66.41
69737;BME280;64476;55.004;73.342;2022-11-11T00:38:30;101184.13;;;4.32;66.49
69737;BME280;64476;55.004;73.342;2022-11-11T00:41:29;101226.06;;;4.54;66.49
69737;BME280;64476;55.004;73.342;2022-11-11T00:44:14;101153.06;;;4.16;66.58
69737;BME280;64476;55.004;73.342;2022-11-11T00:47:04;101211.38;;;4.55;66.70
69737;BME280;64476;55.004;73.342;2022-11-11T00:50:24;101196.84;;;4.52;66.58
69737;BME280;64476;55.004;73.342;2022-11-11T00:53:30;101202.19;;;4.49;66.06
69737;BME280;64476;55.004;73.342;2022-11-11T00:56:20;101208.47;;;4.61;66.42
69737;BME280;64476;55.004;73.342;2022-11-11T00:59:20;101189.47;;;4.45;66.24
69737;BME280;64476;55.004;73.342;2022-11-11T01:02:10;101194.34;;;4.51;65.78
69737;BME280;64476;55.004;73.342;2022-11-11T01:04:55;101227.41;;;4.62;66.35
69737;BME280;64476;55.004;73.342;2022-11-11T01:07:41;101234.19;;;4.64;66.50
69737;BME280;64476;55.004;73.342;2022-11-11T01:10:26;101243.66;;;4.64;66.76
69737;BME280;64476;55.004;73.342;2022-11-11T01:13:31;101235.06;;;4.63;66.15
69737;BME280;64476;55.004;73.342;2022-11-11T01:16:22;101220.13;;;4.52;65.97
69737;BME280;64476;55.004;73.342;2022-11-11T01:19:09;101239.41;;;4.63;66.61
69737;BME280;64476;55.004;73.342;2022-11-11T01:21:54;101231.22;;;4.54;66.38
69737;BME280;64476;55.004;73.342;2022-11-11T01:24:39;101222.94;;;4.48;66.33
69737;BME280;64476;55.004;73.342;2022-11-11T01:27:24;101245.50;;;4.62;66.25
69737;BME280;64476;55.004;73.342;2022-11-11T01:30:09;101216.69;;;4.52;66.49
69737;BME280;64476;55.004;73.342;2022-11-11T01:32:57;101219.44;;;4.49;66.06
69737;BME280;64476;55.004;73.342;2022-11-11T01:36:16;101241.41;;;4.57;65.96
69737;BME280;64476;55.004;73.342;2022-11-11T01:39:10;101221.34;;;4.45;66.17
69737;BME280;64476;55.004;73.342;2022-11-11T01:41:55;101219.69;;;4.44;66.32
69737;BME280;64476;55.004;73.342;2022-11-11T01:44:46;101237.22;;;4.55;66.49
69737;BME280;64476;55.004;73.342;2022-11-11T01:47:31;101239.56;;;4.59;66.47
69737;BME280;64476;55.004;73.342;2022-11-11T01:50:45;101247.28;;;4.61;66.38
69737;BME280;64476;55.004;73.342;2022-11-11T01:53:34;101235.97;;;4.46;66.27
69737;BME280;64476;55.004;73.342;2022-11-11T01:56:21;101216.56;;;4.38;66.26
69737;BME280;64476;55.004;73.342;2022-11-11T01:59:10;101225.94;;;4.40;66.75
69737;BME280;64476;55.004;73.342;2022-11-11T02:02:03;101229.09;;;4.45;66.61
69737;BME280;64476;55.004;73.342;2022-11-11T02:04:50;101223.19;;;4.43;66.69
69737;BME280;64476;55.004;73.342;2022-11-11T02:07:41;101214.91;;;4.36;66.66
69737;BME280;64476;55.004;73.342;2022-11-11T02:10:29;101246.75;;;4.54;66.75
69737;BME280;64476;55.004;73.342;2022-11-11T02:13:15;101252.75;;;4.55;66.98
69737;BME280;64476;55.004;73.342;2022-11-11T02:16:50;101250.41;;;4.50;66.62
69737;BME280;64476;55.004;73.342;2022-11-11T02:22:41;101251.47;;;4.46;67.02
69737;BME280;64476;55.004;73.342;2022-11-11T02:25:23;101224.66;;;4.31;67.04
69737;BME280;64476;55.004;73.342;2022-11-11T02:28:12;101260.13;;;4.45;67.33
69737;BME280;64476;55.004;73.342;2022-11-11T02:33:49;101242.06;;;4.28;67.23
69737;BME280;64476;55.004;73.342;2022-11-11T02:36:30;101228.66;;;4.20;67.26
69737;BME280;64476;55.004;73.342;2022-11-11T02:39:16;101245.34;;;4.31;67.40
69737;BME280;64476;55.004;73.342;2022-11-11T02:42:00;101255.44;;;4.36;67.67
69737;BME280;64476;55.004;73.342;2022-11-11T02:44:48;101239.53;;;4.26;67.59
69737;BME280;64476;55.004;73.342;2022-11-11T02:47:33;101270.56;;;4.44;67.63
69737;BME280;64476;55.004;73.342;2022-11-11T02:50:18;101280.75;;;4.47;67.77
69737;BME280;64476;55.004;73.342;2022-11-11T02:53:03;101272.06;;;4.48;67.73
69737;BME280;64476;55.004;73.342;2022-11-11T02:55:51;101267.28;;;4.40;67.91
69737;BME280;64476;55.004;73.342;2022-11-11T02:58:48;101279.16;;;4.62;67.60
69737;BME280;64476;55.004;73.342;2022-11-11T03:01:38;101280.34;;;4.72;67.14
69737;BME280;64476;55.004;73.342;2022-11-11T03:04:23;101269.75;;;4.76;66.98
69737;BME280;64476;55.004;73.342;2022-11-11T03:07:08;101259.16;;;4.81;67.14
69737;BME280;64476;55.004;73.342;2022-11-11T03:09:53;101243.47;;;4.84;66.73
69737;BME280;64476;55.004;73.342;2022-11-11T03:13:10;101295.22;;;5.17;66.52
69737;BME280;64476;55.004;73.342;2022-11-11T03:16:26;101291.28;;;5.26;66.40
69737;BME280;64476;55.004;73.342;2022-11-11T03:19:31;101239.94;;;5.02;65.47
69737;BME280;64476;55.004;73.342;2022-11-11T03:22:16;101265.50;;;5.24;66.18
69737;BME280;64476;55.004;73.342;2022-11-11T03:25:01;101267.41;;;5.21;65.25
69737;BME280;64476;55.004;73.342;2022-11-11T03:30:50;101296.41;;;5.43;65.45
69737;BME280;64476;55.004;73.342;2022-11-11T03:33:35;101297.34;;;5.42;64.96
69737;BME280;64476;55.004;73.342;2022-11-11T03:36:44;101263.56;;;5.12;65.90
69737;BME280;64476;55.004;73.342;2022-11-11T03:43:42;101284.88;;;5.17;65.67
69737;BME280;64476;55.004;73.342;2022-11-11T03:46:58;101299.47;;;5.18;65.55
69737;BME280;64476;55.004;73.342;2022-11-11T03:49:46;101297.13;;;5.14;65.67
69737;BME280;64476;55.004;73.342;2022-11-11T03:52:31;101293.78;;;5.12;65.47
69737;BME280;64476;55.004;73.342;2022-11-11T03:55:27;101287.78;;;5.11;65.48
69737;BME280;64476;55.004;73.342;2022-11-11T03:58:13;101301.31;;;5.16;65.49
69737;BME280;64476;55.004;73.342;2022-11-11T04:00:58;101253.06;;;4.82;65.80
69737;BME280;64476;55.004;73.342;2022-11-11T04:03:55;101266.47;;;4.90;65.49
69737;BME280;64476;55.004;73.342;2022-11-11T04:07:41;101308.25;;;5.16;65.21
69737;BME280;64476;55.004;73.342;2022-11-11T04:10:56;101244.88;;;4.74;65.10
69737;BME280;64476;55.004;73.342;2022-11-11T04:13:45;101285.94;;;4.97;65.32
69737;BME280;64476;55.004;73.342;2022-11-11T04:17:24;101305.66;;;5.16;64.94
69737;BME280;64476;55.004;73.342;2022-11-11T04:20:12;101301.88;;;5.05;65.25
69737;BME280;64476;55.004;73.342;2022-11-11T04:23:20;101297.13;;;4.98;65.04
69737;BME280;64476;55.004;73.342;2022-11-11T04:26:05;101307.13;;;5.04;65.09
69737;BME280;64476;55.004;73.342;2022-11-11T04:28:56;101262.06;;;4.75;64.62
69737;BME280;64476;55.004;73.342;2022-11-11T04:35:12;101211.91;;;4.62;64.83
69737;BME280;64476;55.004;73.342;2022-11-11T04:37:57;101305.31;;;5.22;65.04
69737;BME280;64476;55.004;73.342;2022-11-11T04:41:02;101295.06;;;5.20;64.56
69737;BME280;64476;55.004;73.342;2022-11-11T04:43:47;101280.53;;;5.18;64.79
69737;BME280;64476;55.004;73.342;2022-11-11T04:46:50;101305.84;;;5.28;64.72
69737;BME280;64476;55.004;73.342;2022-11-11T04:49:47;101275.66;;;5.12;64.52
69737;BME280;64476;55.004;73.342;2022-11-11T04:52:41;101297.25;;;5.28;64.28
69737;BME280;64476;55.004;73.342;2022-11-11T04:55:27;101291.38;;;5.24;64.32
69737;BME280;64476;55.004;73.342;2022-11-11T04:58:33;101306.25;;;5.21;64.40
69737;BME280;64476;55.004;73.342;2022-11-11T05:01:19;101293.09;;;5.08;64.41
69737;BME280;64476;55.004;73.342;2022-11-11T05:04:28;101316.34;;;5.09;64.08
69737;BME280;64476;55.004;73.342;2022-11-11T05:07:13;101263.81;;;4.74;64.78
69737;BME280;64476;55.004;73.342;2022-11-11T05:10:17;101286.16;;;4.93;64.72
69737;BME280;64476;55.004;73.342;2022-11-11T05:13:03;101312.50;;;5.17;64.08
69737;BME280;64476;55.004;73.342;2022-11-11T05:16:22;101285.00;;;4.98;64.87
69737;BME280;64476;55.004;73.342;2022-11-11T05:19:27;101310.66;;;5.19;64.79
69737;BME280;64476;55.004;73.342;2022-11-11T05:22:42;101316.03;;;5.16;64.33
69737;BME280;64476;55.004;73.342;2022-11-11T05:25:31;101305.56;;;5.01;64.76
69737;BME280;64476;55.004;73.342;2022-11-11T05:28:17;101278.22;;;4.96;64.29
69737;BME280;64476;55.004;73.342;2022-11-11T05:31:02;101324.13;;;5.25;64.93
69737;BME280;64476;55.004;73.342;2022-11-11T05:33:47;101301.16;;;5.19;64.73
69737;BME280;64476;55.004;73.342;2022-11-11T05:36:32;101285.44;;;5.22;64.35
69737;BME280;64476;55.004;73.342;2022-11-11T05:39:23;101289.47;;;5.28;64.57
69737;BME280;64476;55.004;73.342;2022-11-11T05:42:26;101318.56;;;5.49;64.08
69737;BME280;64476;55.004;73.342;2022-11-11T05:45:14;101299.50;;;5.34;64.29
69737;BME280;64476;55.004;73.342;2022-11-11T05:48:09;101292.63;;;5.33;64.21
69737;BME280;64476;55.004;73.342;2022-11-11T05:50:57;101314.22;;;5.49;64.18
69737;BME280;64476;55.004;73.342;2022-11-11T05:53:45;101261.31;;;5.22;63.54
69737;BME280;64476;55.004;73.342;2022-11-11T05:56:30;101317.31;;;5.56;63.31
69737;BME280;64476;55.004;73.342;2022-11-11T05:59:15;101312.72;;;5.45;63.61
69737;BME280;64476;55.004;73.342;2022-11-11T06:02:00;101272.19;;;5.28;63.87
69737;BME280;64476;55.004;73.342;2022-11-11T06:04:45;101313.88;;;5.55;64.04
69737;BME280;64476;55.004;73.342;2022-11-11T06:07:52;101293.16;;;5.40;63.29
69737;BME280;64476;55.004;73.342;2022-11-11T06:10:36;101319.72;;;5.59;64.15
69737;BME280;64476;55.004;73.342;2022-11-11T06:13:22;101307.53;;;5.61;63.50
69737;BME280;64476;55.004;73.342;2022-11-11T06:16:01;101288.16;;;5.52;64.45
69737;BME280;64476;55.004;73.342;2022-11-11T06:18:55;101272.63;;;5.52;63.82
69737;BME280;64476;55.004;73.342;2022-11-11T06:21:40;101309.38;;;5.75;63.60
69737;BME280;64476;55.004;73.342;2022-11-11T06:24:46;101317.06;;;5.76;64.34
69737;BME280;64476;55.004;73.342;2022-11-11T06:28:00;101315.88;;;5.66;63.75
69737;BME280;64476;55.004;73.342;2022-11-11T06:30:55;101273.25;;;5.40;64.26
69737;BME280;64476;55.004;73.342;2022-11-11T06:34:45;101314.22;;;5.65;63.79
69737;BME280;64476;55.004;73.342;2022-11-11T06:37:31;101309.19;;;5.62;63.61
69737;BME280;64476;55.004;73.342;2022-11-11T06:40:48;101302.63;;;5.56;63.89
69737;BME280;64476;55.004;73.342;2022-11-11T06:43:42;101317.97;;;5.60;64.10
69737;BME280;64476;55.004;73.342;2022-11-11T06:46:27;101311.06;;;5.60;63.75
69737;BME280;64476;55.004;73.342;2022-11-11T06:49:21;101313.78;;;5.73;63.52
69737;BME280;64476;55.004;73.342;2022-11-11T06:52:07;101307.53;;;5.77;63.61
69737;BME280;64476;55.004;73.342;2022-11-11T06:54:52;101313.53;;;5.77;63.85
69737;BME280;64476;55.004;73.342;2022-11-11T06:57:37;101295.25;;;5.65;63.48
69737;BME280;64476;55.004;73.342;2022-11-11T07:00:33;101310.47;;;5.71;64.06
69737;BME280;64476;55.004;73.342;2022-11-11T07:03:20;101282.72;;;5.57;63.62
69737;BME280;64476;55.004;73.342;2022-11-11T07:06:21;101286.47;;;5.51;63.07
69737;BME280;64476;55.004;73.342;2022-11-11T07:09:06;101292.47;;;5.52;63.64
69737;BME280;64476;55.004;73.342;2022-11-11T07:11:51;101284.72;;;5.52;63.49
69737;BME280;64476;55.004;73.342;2022-11-11T07:14:40;101309.69;;;5.69;63.14
69737;BME280;64476;55.004;73.342;2022-11-11T07:17:30;101309.81;;;5.67;63.19
69737;BME280;64476;55.004;73.342;2022-11-11T07:20:15;101310.63;;;5.68;63.62
69737;BME280;64476;55.004;73.342;2022-11-11T07:23:00;101303.69;;;5.68;63.33
69737;BME280;64476;55.004;73.342;2022-11-11T07:25:45;101303.59;;;5.70;63.30
69737;BME280;64476;55.004;73.342;2022-11-11T07:28:30;101303.59;;;5.70;63.53
69737;BME280;64476;55.004;73.342;2022-11-11T07:31:19;101273.19;;;5.57;63.41
69737;BME280;64476;55.004;73.342;2022-11-11T07:34:33;101284.94;;;5.63;62.97
69737;BME280;64476;55.004;73.342;2022-11-11T07:37:23;101262.41;;;5.33;63.24
69737;BME280;64476;55.004;73.342;2022-11-11T07:40:09;101233.66;;;5.22;63.27
69737;BME280;64476;55.004;73.342;2022-11-11T07:43:27;101283.56;;;5.42;63.96
69737;BME280;64476;55.004;73.342;2022-11-11T07:46:23;101291.56;;;5.37;63.46
69737;BME280;64476;55.004;73.342;2022-11-11T07:49:21;101278.69;;;5.20;63.66
69737;BME280;64476;55.004;73.342;2022-11-11T07:52:21;101276.94;;;5.20;64.45
69737;BME280;64476;55.004;73.342;2022-11-11T07:55:07;101246.09;;;5.00;64.20
69737;BME280;64476;55.004;73.342;2022-11-11T07:57:52;101283.25;;;5.15;63.98
69737;BME280;64476;55.004;73.342;2022-11-11T08:00:37;101264.97;;;5.02;64.80
69737;BME280;64476;55.004;73.342;2022-11-11T08:03:22;101277.78;;;5.21;64.31
69737;BME280;64476;55.004;73.342;2022-11-11T08:06:23;101271.09;;;5.48;64.60
69737;BME280;64476;55.004;73.342;2022-11-11T08:09:08;101238.00;;;5.53;64.58
69737;BME280;64476;55.004;73.342;2022-11-11T08:11:57;101235.50;;;5.52;64.02
69737;BME280;64476;55.004;73.342;2022-11-11T08:15:01;101257.22;;;5.65;63.39
69737;BME280;64476;55.004;73.342;2022-11-11T08:17:48;101221.41;;;5.42;63.62
69737;BME280;64476;55.004;73.342;2022-11-11T08:20:35;101245.84;;;5.52;63.56
69737;BME280;64476;55.004;73.342;2022-11-11T08:23:52;101245.38;;;5.45;63.99
69737;BME280;64476;55.004;73.342;2022-11-11T08:26:47;101255.06;;;5.42;63.91
69737;BME280;64476;55.004;73.342;2022-11-11T08:29:35;101262.22;;;5.37;63.95
69737;BME280;64476;55.004;73.342;2022-11-11T08:32:20;101277.09;;;5.33;64.03
69737;BME280;64476;55.004;73.342;2022-11-11T08:35:10;101275.34;;;5.33;64.38
69737;BME280;64476;55.004;73.342;2022-11-11T08:38:05;101267.94;;;5.27;64.34
69737;BME280;64476;55.004;73.342;2022-11-11T08:40:50;101276.28;;;5.32;64.55
69737;BME280;64476;55.004;73.342;2022-11-11T08:43:36;101271.34;;;5.28;64.00
69737;BME280;64476;55.004;73.342;2022-11-11T08:46:23;101270.44;;;5.29;64.34
69737;BME280;64476;55.004;73.342;2022-11-11T08:49:09;101248.22;;;5.25;64.02
69737;BME280;64476;55.004;73.342;2022-11-11T08:51:55;101259.75;;;5.35;64.10
69737;BME280;64476;55.004;73.342;2022-11-11T08:54:40;101249.97;;;5.24;63.86
69737;BME280;64476;55.004;73.342;2022-11-11T08:57:45;101270.84;;;5.37;63.86
69737;BME280;64476;55.004;73.342;2022-11-11T09:00:31;101237.28;;;5.20;63.67
69737;BME280;64476;55.004;73.342;2022-11-11T09:03:26;101242.69;;;5.15;64.05
69737;BME280;64476;55.004;73.342;2022-11-11T09:06:15;101187.91;;;4.75;63.61
69737;BME280;64476;55.004;73.342;2022-11-11T09:09:00;101263.38;;;5.15;64.20
69737;BME280;64476;55.004;73.342;2022-11-11T09:11:45;101253.38;;;5.09;64.28
69737;BME280;64476;55.004;73.342;2022-11-11T09:14:30;101241.84;;;4.99;63.98
69737;BME280;64476;55.004;73.342;2022-11-11T09:17:15;101261.47;;;5.03;64.12
69737;BME280;64476;55.004;73.342;2022-11-11T09:20:02;101258.88;;;5.03;64.69
69737;BME280;64476;55.004;73.342;2022-11-11T09:22:49;101226.31;;;4.83;64.33
69737;BME280;64476;55.004;73.342;2022-11-11T09:25:42;101259.88;;;5.00;64.55
69737;BME280;64476;55.004;73.342;2022-11-11T09:28:26;101242.16;;;4.93;64.29
69737;BME280;64476;55.004;73.342;2022-11-11T09:31:19;101232.38;;;4.82;64.68
69737;BME280;64476;55.004;73.342;2022-11-11T09:34:03;101255.63;;;4.99;64.62
69737;BME280;64476;55.004;73.342;2022-11-11T09:36:51;101233.72;;;4.89;64.40
69737;BME280;64476;55.004;73.342;2022-11-11T09:39:40;101239.25;;;4.99;64.40
69737;BME280;64476;55.004;73.342;2022-11-11T09:42:40;101260.13;;;5.12;64.43
69737;BME280;64476;55.004;73.342;2022-11-11T09:58:31;101254.47;;;5.05;65.24
69737;BME280;64476;55.004;73.342;2022-11-11T10:01:22;101260.56;;;5.20;64.74
69737;BME280;64476;55.004;73.342;2022-11-11T10:04:15;101264.25;;;5.31;65.48
69737;BME280;64476;55.004;73.342;2022-11-11T10:07:40;101253.88;;;5.47;64.95
69737;BME280;64476;55.004;73.342;2022-11-11T10:10:47;101228.16;;;5.60;63.24
69737;BME280;64476;55.004;73.342;2022-11-11T10:13:34;101216.63;;;5.50;63.57
69737;BME280;64476;55.004;73.342;2022-11-11T10:23:25;101259.81;;;5.18;64.04
69737;BME280;64476;55.004;73.342;2022-11-11T10:29:43;101255.91;;;4.77;65.15
69737;BME280;64476;55.004;73.342;2022-11-11T10:32:33;101234.50;;;4.58;65.10
69737;BME280;64476;55.004;73.342;2022-11-11T10:35:31;101212.63;;;4.30;65.44
69737;BME280;64476;55.004;73.342;2022-11-11T10:38:30;101261.44;;;4.54;66.01
69737;BME280;64476;55.004;73.342;2022-11-11T10:41:35;101258.63;;;4.41;65.73
69737;BME280;64476;55.004;73.342;2022-11-11T10:44:25;101214.75;;;4.22;66.35
69737;BME280;64476;55.004;73.342;2022-11-11T10:50:43;101252.56;;;4.42;66.27
69737;BME280;64476;55.004;73.342;2022-11-11T10:54:10;101237.56;;;4.31;66.01
69737;BME280;64476;55.004;73.342;2022-11-11T10:57:18;101221.53;;;4.25;66.01
69737;BME280;64476;55.004;73.342;2022-11-11T11:00:08;101244.63;;;4.45;66.08
69737;BME280;64476;55.004;73.342;2022-11-11T11:06:25;101244.06;;;4.56;65.97
69737;BME280;64476;55.004;73.342;2022-11-11T11:09:18;101247.81;;;4.68;66.25
69737;BME280;64476;55.004;73.342;2022-11-11T11:15:22;101233.38;;;4.46;66.68
69737;BME280;64476;55.004;73.342;2022-11-11T11:18:13;101236.34;;;4.39;66.58
69737;BME280;64476;55.004;73.342;2022-11-11T11:21:09;101248.22;;;4.43;66.79
69737;BME280;64476;55.004;73.342;2022-11-11T11:23:54;101249.19;;;4.40;67.08
69737;BME280;64476;55.004;73.342;2022-11-11T11:27:25;101253.28;;;4.44;67.33
69737;BME280;64476;55.004;73.342;2022-11-11T11:30:26;101213.94;;;4.22;66.90
69737;BME280;64476;55.004;73.342;2022-11-11T11:33:10;101229.81;;;4.31;66.94
69737;BME280;64476;55.004;73.342;2022-11-11T11:36:27;101201.94;;;4.21;67.38
69737;BME280;64476;55.004;73.342;2022-11-11T11:39:12;101237.94;;;4.41;67.39
69737;BME280;64476;55.004;73.342;2022-11-11T11:42:50;101243.56;;;4.32;67.83
69737;BME280;64476;55.004;73.342;2022-11-11T11:45:35;101241.69;;;4.35;67.23
69737;BME280;64476;55.004;73.342;2022-11-11T11:52:23;101228.06;;;4.32;68.06
69737;BME280;64476;55.004;73.342;2022-11-11T11:55:21;101206.41;;;4.17;67.62
69737;BME280;64476;55.004;73.342;2022-11-11T11:58:28;101226.16;;;4.35;67.79
69737;BME280;64476;55.004;73.342;2022-11-11T12:01:26;101216.91;;;4.31;67.83
69737;BME280;64476;55.004;73.342;2022-11-11T12:26:06;101206.72;;;4.28;68.36
69737;BME280;64476;55.004;73.342;2022-11-11T12:46:18;101189.69;;;4.24;68.40
69737;BME280;64476;55.004;73.342;2022-11-11T12:55:35;101166.72;;;4.18;68.44
69737;BME280;64476;55.004;73.342;2022-11-11T12:59:08;101142.03;;;4.13;68.26
69737;BME280;64476;55.004;73.342;2022-11-11T13:08:18;101173.94;;;4.29;68.12
69737;BME280;64476;55.004;73.342;2022-11-11T13:11:15;101185.94;;;4.30;68.59
69737;BME280;64476;55.004;73.342;2022-11-11T13:14:30;101180.56;;;4.34;68.01
69737;BME280;64476;55.004;73.342;2022-11-11T13:17:18;101178.72;;;4.36;68.38
69737;BME280;64476;55.004;73.342;2022-11-11T13:23:29;101178.03;;;4.33;68.58
69737;BME280;64476;55.004;73.342;2022-11-11T13:27:05;101164.66;;;4.25;69.24
69737;BME280;64476;55.004;73.342;2022-11-11T13:33:42;101157.59;;;4.28;68.85
69737;BME280;64476;55.004;73.342;2022-11-11T13:36:33;101159.41;;;4.26;68.72
69737;BME280;64476;55.004;73.342;2022-11-11T13:39:37;101155.41;;;4.21;68.85
69737;BME280;64476;55.004;73.342;2022-11-11T13:42:26;101154.31;;;4.25;69.36
69737;BME280;64476;55.004;73.342;2022-11-11T13:45:38;101153.25;;;4.29;68.70
69737;BME280;64476;55.004;73.342;2022-11-11T13:54:41;101134.75;;;4.36;68.60
69737;BME280;64476;55.004;73.342;2022-11-11T13:57:33;101130.25;;;4.40;68.41
69737;BME280;64476;55.004;73.342;2022-11-11T14:08:57;101132.41;;;4.32;68.96
69737;BME280;64476;55.004;73.342;2022-11-11T14:11:42;101127.88;;;4.20;68.96
69737;BME280;64476;55.004;73.342;2022-11-11T14:17:21;101089.56;;;3.95;69.09
69737;BME280;64476;55.004;73.342;2022-11-11T14:26:23;101124.94;;;4.10;69.16
69737;BME280;64476;55.004;73.342;2022-11-11T14:29:18;101112.31;;;4.04;69.20
69737;BME280;64476;55.004;73.342;2022-11-11T14:35:25;101110.00;;;4.15;68.54
69737;BME280;64476;55.004;73.342;2022-11-11T14:47:24;101074.19;;;4.25;68.01
69737;BME280;64476;55.004;73.342;2022-11-11T14:53:18;101084.50;;;4.42;67.65
69737;BME280;64476;55.004;73.342;2022-11-11T14:56:13;101063.69;;;4.28;67.50
69737;BME280;64476;55.004;73.342;2022-11-11T14:59:05;101055.94;;;4.28;67.42
69737;BME280;64476;55.004;73.342;2022-11-11T15:01:56;101071.72;;;4.39;67.70
69737;BME280;64476;55.004;73.342;2022-11-11T15:04:49;101071.63;;;4.41;67.56
69737;BME280;64476;55.004;73.342;2022-11-11T15:07:51;101068.06;;;4.43;67.51
69737;BME280;64476;55.004;73.342;2022-11-11T15:11:20;101058.84;;;4.38;67.52
69737;BME280;64476;55.004;73.342;2022-11-11T15:23:51;101015.13;;;4.01;67.89
69737;BME280;64476;55.004;73.342;2022-11-11T15:29:59;101004.97;;;3.98;67.78
69737;BME280;64476;55.004;73.342;2022-11-11T15:37:04;101031.19;;;4.24;67.35
69737;BME280;64476;55.004;73.342;2022-11-11T15:39:54;101023.69;;;4.35;67.26
69737;BME280;64476;55.004;73.342;2022-11-11T15:42:42;100991.53;;;4.23;66.99
69737;BME280;64476;55.004;73.342;2022-11-11T15:45:34;101025.03;;;4.42;67.37
69737;BME280;64476;55.004;73.342;2022-11-11T15:48:41;101014.84;;;4.39;67.03
69737;BME280;64476;55.004;73.342;2022-11-11T15:51:29;100983.06;;;4.21;67.17
69737;BME280;64476;55.004;73.342;2022-11-11T15:57:27;101000.47;;;4.33;66.76
69737;BME280;64476;55.004;73.342;2022-11-11T16:00:38;101004.50;;;4.39;67.62
69737;BME280;64476;55.004;73.342;2022-11-11T16:03:34;101006.41;;;4.51;66.63
69737;BME280;64476;55.004;73.342;2022-11-11T16:06:23;100988.47;;;4.48;66.52
69737;BME280;64476;55.004;73.342;2022-11-11T16:09:09;100992.31;;;4.57;66.50
69737;BME280;64476;55.004;73.342;2022-11-11T16:11:57;100993.81;;;4.61;66.55
69737;BME280;64476;55.004;73.342;2022-11-11T16:14:43;100993.72;;;4.63;66.08
69737;BME280;64476;55.004;73.342;2022-11-11T16:17:37;100958.38;;;4.47;65.83
69737;BME280;64476;55.004;73.342;2022-11-11T16:20:47;100955.78;;;4.47;65.91
69737;BME280;64476;55.004;73.342;2022-11-11T16:23:33;100979.56;;;4.54;66.11
69737;BME280;64476;55.004;73.342;2022-11-11T16:26:24;100911.94;;;4.14;65.97
69737;BME280;64476;55.004;73.342;2022-11-11T16:29:13;100935.34;;;4.27;66.46
69737;BME280;64476;55.004;73.342;2022-11-11T16:32:00;100908.94;;;4.22;66.48
69737;BME280;64476;55.004;73.342;2022-11-11T16:34:47;100899.16;;;4.27;65.89
69737;BME280;64476;55.004;73.342;2022-11-11T16:37:51;100959.59;;;4.56;65.90
69737;BME280;64476;55.004;73.342;2022-11-11T16:40:50;100932.59;;;4.46;66.01
69737;BME280;64476;55.004;73.342;2022-11-11T16:43:51;100945.34;;;4.65;66.26
69737;BME280;64476;55.004;73.342;2022-11-11T16:46:43;100917.38;;;4.55;65.61
69737;BME280;64476;55.004;73.342;2022-11-11T16:49:37;100952.22;;;4.80;65.47
69737;BME280;64476;55.004;73.342;2022-11-11T16:52:25;100943.03;;;4.74;65.34
69737;BME280;64476;55.004;73.342;2022-11-11T16:59:46;100912.03;;;4.58;65.15
69737;BME280;64476;55.004;73.342;2022-11-11T17:03:15;100906.13;;;4.56;65.26
69737;BME280;64476;55.004;73.342;2022-11-11T17:06:18;100921.63;;;4.72;65.94
69737;BME280;64476;55.004;73.342;2022-11-11T17:12:29;100877.50;;;4.59;65.51
69737;BME280;64476;55.004;73.342;2022-11-11T17:15:22;100909.63;;;4.85;65.51
69737;BME280;64476;55.004;73.342;2022-11-11T17:18:39;100901.88;;;4.85;65.37
69737;BME280;64476;55.004;73.342;2022-11-11T17:21:18;100899.22;;;4.87;65.39
69737;BME280;64476;55.004;73.342;2022-11-11T17:24:05;100900.59;;;4.93;65.14
69737;BME280;64476;55.004;73.342;2022-11-11T17:26:56;100866.16;;;4.62;65.55
69737;BME280;64476;55.004;73.342;2022-11-11T17:29:42;100886.78;;;4.78;65.75
69737;BME280;64476;55.004;73.342;2022-11-11T17:32:27;100876.53;;;4.76;65.22
69737;BME280;64476;55.004;73.342;2022-11-11T17:35:17;100883.19;;;4.80;65.64
69737;BME280;64476;55.004;73.342;2022-11-11T17:38:04;100874.31;;;4.70;65.71
69737;BME280;64476;55.004;73.342;2022-11-11T17:41:29;100835.00;;;4.49;65.52
69737;BME280;64476;55.004;73.342;2022-11-11T17:44:23;100868.75;;;4.62;65.80
69737;BME280;64476;55.004;73.342;2022-11-11T17:47:14;100866.03;;;4.49;65.80
69737;BME280;64476;55.004;73.342;2022-11-11T17:50:11;100767.47;;;3.79;66.08
69737;BME280;64476;55.004;73.342;2022-11-11T17:53:24;100828.44;;;3.98;66.51
69737;BME280;64476;55.004;73.342;2022-11-11T17:56:18;100742.91;;;3.56;67.04
69737;BME280;64476;55.004;73.342;2022-11-11T17:59:13;100817.19;;;3.99;67.38
69737;BME280;64476;55.004;73.342;2022-11-11T18:01:58;100833.75;;;4.10;66.96
69737;BME280;64476;55.004;73.342;2022-11-11T18:04:47;100815.94;;;4.06;67.37
69737;BME280;64476;55.004;73.342;2022-11-11T18:07:32;100819.56;;;4.18;66.83
69737;BME280;64476;55.004;73.342;2022-11-11T18:10:16;100745.13;;;3.78;66.61